createdAt,value
2022-07-29T00:00:13.808Z,22.62
2022-07-29T00:03:16.801Z,22.59
2022-07-29T00:06:19.778Z,22.59
2022-07-29T00:09:22.625Z,22.63
2022-07-29T00:12:27.040Z,22.59
2022-07-29T00:15:29.922Z,22.60
2022-07-29T00:18:33.193Z,22.60
2022-07-29T00:21:36.141Z,22.65
2022-07-29T00:24:38.641Z,22.68
2022-07-29T00:27:41.611Z,22.59
2022-07-29T00:30:44.381Z,22.67
2022-07-29T00:33:47.105Z,22.72
2022-07-29T00:36:49.565Z,22.77
2022-07-29T00:39:52.333Z,22.82
2022-07-29T00:42:54.886Z,22.68
2022-07-29T00:45:57.628Z,22.62
2022-07-29T00:49:00.316Z,22.54
2022-07-29T00:52:06.904Z,22.54
2022-07-29T00:55:12.580Z,22.52
2022-07-29T00:58:16.047Z,22.50
2022-07-29T01:01:18.647Z,22.44
2022-07-29T01:04:22.670Z,22.39
2022-07-29T01:07:26.871Z,22.32
2022-07-29T01:10:30.866Z,22.28
2022-07-29T01:13:34.279Z,22.22
2022-07-29T01:16:47.211Z,22.24
2022-07-29T01:20:08.241Z,22.25
2022-07-29T01:23:32.849Z,22.31
2022-07-29T01:26:55.496Z,22.25
2022-07-29T01:30:00.764Z,22.19
2022-07-29T01:33:09.596Z,22.17
2022-07-29T01:36:19.680Z,22.13
2022-07-29T01:39:31.007Z,22.03
2022-07-29T01:42:39.566Z,21.98
2022-07-29T01:45:46.094Z,22.02
2022-07-29T01:48:54.326Z,22.05
2022-07-29T01:52:06.741Z,21.98
2022-07-29T01:55:15.038Z,22.06
2022-07-29T01:58:20.092Z,21.99
2022-07-29T02:01:25.938Z,22.06
2022-07-29T02:04:30.500Z,22.06
2022-07-29T02:07:34.817Z,22.02
2022-07-29T02:10:40.956Z,21.96
2022-07-29T02:13:45.311Z,21.88
2022-07-29T02:16:51.258Z,21.82
2022-07-29T02:19:58.375Z,21.88
2022-07-29T02:23:05.390Z,21.86
2022-07-29T02:26:09.464Z,21.86
2022-07-29T02:29:16.239Z,21.83
2022-07-29T02:32:20.358Z,21.89
2022-07-29T02:35:23.959Z,21.85
2022-07-29T02:38:47.677Z,21.83
2022-07-29T02:41:58.954Z,21.76
2022-07-29T02:45:02.645Z,21.86
2022-07-29T02:48:11.091Z,21.70
2022-07-29T02:51:43.607Z,21.52
2022-07-29T02:54:48.248Z,21.41
2022-07-29T02:58:00.932Z,21.39
2022-07-29T03:01:20.917Z,21.31
2022-07-29T03:04:26.773Z,21.24
2022-07-29T03:07:30.969Z,21.22
2022-07-29T03:10:34.878Z,21.24
2022-07-29T03:13:38.563Z,21.17
2022-07-29T03:16:41.680Z,21.14
2022-07-29T03:19:44.970Z,21.27
2022-07-29T03:22:50.030Z,21.34
2022-07-29T03:25:53.684Z,21.33
2022-07-29T03:28:57.100Z,21.33
2022-07-29T03:32:00.011Z,21.28
2022-07-29T03:35:03.152Z,21.22
2022-07-29T03:38:06.045Z,21.24
2022-07-29T03:41:11.753Z,21.25
2022-07-29T03:44:16.331Z,21.23
2022-07-29T03:47:26.997Z,21.24
2022-07-29T03:50:47.147Z,21.20
2022-07-29T03:53:49.663Z,21.16
2022-07-29T03:56:54.345Z,21.12
2022-07-29T03:59:57.668Z,21.08
2022-07-29T04:03:01.141Z,21.05
2022-07-29T04:06:08.996Z,21.03
2022-07-29T04:09:11.926Z,21.05
2022-07-29T04:12:14.762Z,21.09
2022-07-29T04:15:17.277Z,21.12
2022-07-29T04:18:20.031Z,21.15
2022-07-29T04:21:22.833Z,21.08
2022-07-29T04:24:25.751Z,21.09
2022-07-29T04:27:28.277Z,21.14
2022-07-29T04:30:34.304Z,21.15
2022-07-29T04:33:36.808Z,21.17
2022-07-29T04:36:39.599Z,21.21
2022-07-29T04:39:42.032Z,21.21
2022-07-29T04:42:46.530Z,21.28
2022-07-29T04:45:50.747Z,21.29
2022-07-29T04:48:53.640Z,21.40
2022-07-29T04:51:56.171Z,21.48
2022-07-29T04:54:58.964Z,21.46
2022-07-29T04:58:01.552Z,21.52
2022-07-29T05:01:05.532Z,21.69
2022-07-29T05:04:08.231Z,21.65
2022-07-29T05:07:11.028Z,21.83
2022-07-29T05:10:13.559Z,21.98
2022-07-29T05:13:17.101Z,22.10
2022-07-29T05:16:19.676Z,22.10
2022-07-29T05:19:22.467Z,22.21
2022-07-29T05:22:24.917Z,22.28
2022-07-29T05:25:43.207Z,22.41
2022-07-29T05:28:47.046Z,22.72
2022-07-29T05:31:49.909Z,22.65
2022-07-29T05:34:52.426Z,22.88
2022-07-29T05:37:55.225Z,23.11
2022-07-29T05:40:59.863Z,23.03
2022-07-29T05:44:03.189Z,22.95
2022-07-29T05:47:07.452Z,23.03
2022-07-29T05:50:11.291Z,23.14
2022-07-29T05:53:20.081Z,23.23
2022-07-29T05:56:23.328Z,23.46
2022-07-29T05:59:30.185Z,23.42
2022-07-29T06:02:33.365Z,23.34
2022-07-29T06:05:36.490Z,23.48
2022-07-29T06:08:39.531Z,23.78
2022-07-29T06:11:42.599Z,23.75
2022-07-29T06:14:45.131Z,23.53
2022-07-29T06:17:59.194Z,23.68
2022-07-29T06:21:09.633Z,23.89
2022-07-29T06:24:14.046Z,24.22
2022-07-29T06:27:17.329Z,24.23
2022-07-29T06:30:20.238Z,24.08
2022-07-29T06:33:22.849Z,24.37
2022-07-29T06:36:25.887Z,24.52
2022-07-29T06:39:28.941Z,24.55
2022-07-29T06:42:31.686Z,24.76
2022-07-29T06:45:37.236Z,25.04
2022-07-29T06:48:41.597Z,25.15
2022-07-29T06:51:44.133Z,25.38
2022-07-29T06:54:49.078Z,25.64
2022-07-29T06:57:52.308Z,25.88
2022-07-29T07:00:56.784Z,26.08
2022-07-29T07:03:59.350Z,25.93
2022-07-29T07:07:02.183Z,26.25
2022-07-29T07:10:05.447Z,26.57
2022-07-29T07:13:08.377Z,26.74
2022-07-29T07:16:11.330Z,27.00
2022-07-29T07:19:14.887Z,27.56
2022-07-29T07:22:17.366Z,27.88
2022-07-29T07:25:20.242Z,28.18
2022-07-29T07:28:25.077Z,28.37
2022-07-29T07:31:28.409Z,29.34
2022-07-29T07:34:31.164Z,30.23
2022-07-29T07:37:34.506Z,30.42
2022-07-29T07:40:37.003Z,30.29
2022-07-29T07:43:41.119Z,30.35
2022-07-29T07:46:45.875Z,30.50
2022-07-29T07:49:48.688Z,31.01
2022-07-29T07:52:53.733Z,31.13
2022-07-29T07:56:12.974Z,31.96
2022-07-29T07:59:15.702Z,31.93
2022-07-29T08:02:18.695Z,32.10
2022-07-29T08:05:21.784Z,32.28
2022-07-29T08:08:24.404Z,31.67
2022-07-29T08:11:27.531Z,33.38
2022-07-29T08:14:32.015Z,33.52
2022-07-29T08:17:35.411Z,34.40
2022-07-29T08:20:39.896Z,34.62
2022-07-29T08:23:53.164Z,33.74
2022-07-29T08:27:01.378Z,33.45
2022-07-29T08:30:05.769Z,35.12
2022-07-29T08:33:08.374Z,35.55
2022-07-29T08:36:11.199Z,36.14
2022-07-29T08:39:13.682Z,37.14
2022-07-29T08:42:17.899Z,36.66
2022-07-29T08:45:22.938Z,36.04
2022-07-29T08:48:26.193Z,36.36
2022-07-29T08:51:29.292Z,37.46
2022-07-29T08:54:33.338Z,38.01
2022-07-29T08:57:37.402Z,38.10
2022-07-29T09:00:44.591Z,37.42
2022-07-29T09:03:48.417Z,37.46
2022-07-29T09:06:55.431Z,38.62
2022-07-29T09:09:58.140Z,38.48
2022-07-29T09:13:01.002Z,39.45
2022-07-29T09:16:08.916Z,39.23
2022-07-29T09:19:24.997Z,39.32
2022-07-29T09:22:37.671Z,38.86
2022-07-29T09:25:43.150Z,38.08
2022-07-29T09:28:45.638Z,39.41
2022-07-29T09:31:50.714Z,40.15
2022-07-29T09:35:20.285Z,40.13
2022-07-29T09:38:23.314Z,41.19
2022-07-29T09:41:26.327Z,40.82
2022-07-29T09:44:44.756Z,37.79
2022-07-29T09:47:50.386Z,39.70
2022-07-29T09:50:53.558Z,41.14
2022-07-29T09:53:56.108Z,41.55
2022-07-29T09:56:58.958Z,41.41
2022-07-29T10:00:10.775Z,40.94
2022-07-29T10:03:16.671Z,41.18
2022-07-29T10:06:19.884Z,39.54
2022-07-29T10:09:22.643Z,38.73
2022-07-29T10:12:25.700Z,38.76
2022-07-29T10:15:31.317Z,40.20
2022-07-29T10:18:34.962Z,41.22
2022-07-29T10:21:43.590Z,39.16
2022-07-29T10:24:46.742Z,37.73
2022-07-29T10:27:52.074Z,37.52
2022-07-29T10:31:02.838Z,38.93
2022-07-29T10:34:18.191Z,40.40
2022-07-29T10:37:25.090Z,41.12
2022-07-29T10:40:57.325Z,40.53
2022-07-29T10:44:14.759Z,39.89
2022-07-29T10:47:27.506Z,36.89
2022-07-29T10:50:54.231Z,35.33
2022-07-29T10:54:00.765Z,35.50
2022-07-29T10:57:15.968Z,35.47
2022-07-29T11:00:18.449Z,34.67
2022-07-29T11:03:49.292Z,35.24
2022-07-29T11:07:04.028Z,36.76
2022-07-29T11:10:16.458Z,37.87
2022-07-29T11:13:44.151Z,37.81
2022-07-29T11:17:05.981Z,41.13
2022-07-29T11:20:34.229Z,42.73
2022-07-29T11:23:42.818Z,42.99
2022-07-29T11:26:46.449Z,45.54
2022-07-29T11:29:57.361Z,46.77
2022-07-29T11:33:01.435Z,44.98
2022-07-29T11:36:16.796Z,45.22
2022-07-29T11:39:27.049Z,45.35
2022-07-29T11:42:42.112Z,43.93
2022-07-29T11:45:47.325Z,43.80
2022-07-29T11:48:50.227Z,41.65
2022-07-29T11:51:56.847Z,43.69
2022-07-29T11:55:09.886Z,46.21
2022-07-29T11:58:13.192Z,45.22
2022-07-29T12:01:18.408Z,46.11
2022-07-29T12:04:21.543Z,47.59
2022-07-29T12:07:32.571Z,47.75
2022-07-29T12:10:39.094Z,48.14
2022-07-29T12:13:41.647Z,47.85
2022-07-29T12:16:44.510Z,46.74
2022-07-29T12:19:47.221Z,47.13
2022-07-29T12:22:54.834Z,46.21
2022-07-29T12:25:59.149Z,45.81
2022-07-29T12:29:03.208Z,46.04
2022-07-29T12:32:14.416Z,44.93
2022-07-29T12:35:22.159Z,45.60
2022-07-29T12:38:24.705Z,47.85
2022-07-29T12:41:30.135Z,48.64
2022-07-29T12:44:50.077Z,49.24
2022-07-29T12:47:53.536Z,47.02
2022-07-29T12:51:02.261Z,46.42
2022-07-29T12:54:11.644Z,47.01
2022-07-29T12:57:20.186Z,47.77
2022-07-29T13:00:25.273Z,49.34
2022-07-29T13:03:28.124Z,50.64
2022-07-29T13:06:45.885Z,46.40
2022-07-29T13:09:50.821Z,47.37
2022-07-29T13:13:07.468Z,46.61
2022-07-29T13:16:12.597Z,45.91
2022-07-29T13:19:15.438Z,48.53
2022-07-29T13:22:20.379Z,50.88
2022-07-29T13:25:31.989Z,50.78
2022-07-29T13:28:35.252Z,46.23
2022-07-29T13:31:38.087Z,46.59
2022-07-29T13:34:41.787Z,45.66
2022-07-29T13:37:44.716Z,48.40
2022-07-29T13:40:47.389Z,48.08
2022-07-29T13:43:50.226Z,48.31
2022-07-29T13:46:52.718Z,44.99
2022-07-29T13:49:56.325Z,41.91
2022-07-29T13:52:58.776Z,39.55
2022-07-29T13:56:01.724Z,37.09
2022-07-29T13:59:04.317Z,39.09
2022-07-29T14:02:07.643Z,44.43
2022-07-29T14:05:11.112Z,45.07
2022-07-29T14:08:13.715Z,45.25
2022-07-29T14:11:16.587Z,44.04
2022-07-29T14:14:19.828Z,41.73
2022-07-29T14:17:23.741Z,39.51
2022-07-29T14:20:26.939Z,37.27
2022-07-29T14:23:29.918Z,36.53
2022-07-29T14:26:32.854Z,40.65
2022-07-29T14:29:38.111Z,43.26
2022-07-29T14:32:41.250Z,44.69
2022-07-29T14:35:44.667Z,42.79
2022-07-29T14:38:47.270Z,40.78
2022-07-29T14:41:52.010Z,39.48
2022-07-29T14:44:54.777Z,38.86
2022-07-29T14:47:57.665Z,37.51
2022-07-29T14:51:04.705Z,38.09
2022-07-29T14:54:08.088Z,38.13
2022-07-29T14:57:10.666Z,38.72
2022-07-29T15:00:15.188Z,38.90
2022-07-29T15:03:23.827Z,37.79
2022-07-29T15:06:27.768Z,37.42
2022-07-29T15:09:30.323Z,36.77
2022-07-29T15:12:34.057Z,36.42
2022-07-29T15:15:36.589Z,36.45
2022-07-29T15:18:39.515Z,37.01
2022-07-29T15:21:48.066Z,37.37
2022-07-29T15:24:51.205Z,39.47
2022-07-29T15:27:55.657Z,40.97
2022-07-29T15:31:01.925Z,40.47
2022-07-29T15:34:06.334Z,41.06
2022-07-29T15:37:09.316Z,40.13
2022-07-29T15:40:12.054Z,38.91
2022-07-29T15:43:15.032Z,37.69
2022-07-29T15:46:38.400Z,36.66
2022-07-29T15:49:47.266Z,35.98
2022-07-29T15:52:51.924Z,35.30
2022-07-29T15:55:54.753Z,34.99
2022-07-29T15:59:00.156Z,34.62
2022-07-29T16:02:04.993Z,34.49
2022-07-29T16:05:09.582Z,34.50
2022-07-29T16:08:12.195Z,34.11
2022-07-29T16:11:15.039Z,33.94
2022-07-29T16:14:18.276Z,34.26
2022-07-29T16:17:21.302Z,35.05
2022-07-29T16:20:24.039Z,34.84
2022-07-29T16:23:27.094Z,34.63
2022-07-29T16:26:29.668Z,34.85
2022-07-29T16:29:32.581Z,34.22
2022-07-29T16:32:35.500Z,33.96
2022-07-29T16:35:40.379Z,34.22
2022-07-29T16:38:47.237Z,34.60
2022-07-29T16:41:50.365Z,34.71
2022-07-29T16:44:53.008Z,34.68
2022-07-29T16:48:00.154Z,34.33
2022-07-29T16:51:03.476Z,33.82
2022-07-29T16:54:06.441Z,34.05
2022-07-29T16:57:09.108Z,33.73
2022-07-29T17:00:12.900Z,33.38
2022-07-29T17:03:15.731Z,33.15
2022-07-29T17:06:18.725Z,32.97
2022-07-29T17:09:21.366Z,32.67
2022-07-29T17:12:24.794Z,32.50
2022-07-29T17:15:27.491Z,32.37
2022-07-29T17:18:31.970Z,32.27
2022-07-29T17:21:34.498Z,32.10
2022-07-29T17:24:38.241Z,32.04
2022-07-29T17:27:42.565Z,31.98
2022-07-29T17:30:45.343Z,31.95
2022-07-29T17:33:47.861Z,31.88
2022-07-29T17:36:50.838Z,31.79
2022-07-29T17:39:57.319Z,31.70
2022-07-29T17:43:04.817Z,31.54
2022-07-29T17:46:09.053Z,31.44
2022-07-29T17:49:12.260Z,31.35
2022-07-29T17:52:15.943Z,31.33
2022-07-29T17:55:18.969Z,31.25
2022-07-29T17:58:22.002Z,31.01
2022-07-29T18:01:24.967Z,30.89
2022-07-29T18:04:28.668Z,30.87
2022-07-29T18:07:31.299Z,30.78
2022-07-29T18:10:34.196Z,30.74
2022-07-29T18:13:36.700Z,30.68
2022-07-29T18:16:39.747Z,30.52
2022-07-29T18:19:42.384Z,30.49
2022-07-29T18:22:45.361Z,30.44
2022-07-29T18:25:48.020Z,30.28
2022-07-29T18:28:52.380Z,30.20
2022-07-29T18:31:55.275Z,29.99
2022-07-29T18:34:58.270Z,29.66
2022-07-29T18:38:03.088Z,29.49
2022-07-29T18:41:06.313Z,29.19
2022-07-29T18:44:10.049Z,29.00
2022-07-29T18:47:18.475Z,28.89
2022-07-29T18:50:28.867Z,29.46
2022-07-29T18:53:32.227Z,29.45
2022-07-29T18:56:39.505Z,29.35
2022-07-29T18:59:43.392Z,29.27
2022-07-29T19:02:46.090Z,29.19
2022-07-29T19:05:49.457Z,29.15
2022-07-29T19:08:52.487Z,29.08
2022-07-29T19:11:58.000Z,29.00
2022-07-29T19:15:03.601Z,28.84
2022-07-29T19:18:07.209Z,28.71
2022-07-29T19:21:09.868Z,28.59
2022-07-29T19:24:15.591Z,28.42
2022-07-29T19:27:18.891Z,28.31
2022-07-29T19:30:22.152Z,28.19
2022-07-29T19:33:24.942Z,28.18
2022-07-29T19:36:27.850Z,28.08
2022-07-29T19:39:34.981Z,28.03
2022-07-29T19:42:38.539Z,27.96
2022-07-29T19:45:41.117Z,27.89
2022-07-29T19:48:44.536Z,27.79
2022-07-29T19:51:47.338Z,27.66
2022-07-29T19:54:50.228Z,27.54
2022-07-29T19:57:52.877Z,27.45
2022-07-29T20:00:55.984Z,27.36
2022-07-29T20:03:58.891Z,27.21
2022-07-29T20:07:01.955Z,27.08
2022-07-29T20:10:06.742Z,27.00
2022-07-29T20:13:09.543Z,26.89
2022-07-29T20:16:12.642Z,26.78
2022-07-29T20:19:15.284Z,26.69
2022-07-29T20:22:21.223Z,26.65
2022-07-29T20:25:24.382Z,26.50
2022-07-29T20:28:27.623Z,26.42
2022-07-29T20:31:30.628Z,26.38
2022-07-29T20:34:33.815Z,26.25
2022-07-29T20:37:52.175Z,26.20
2022-07-29T20:40:59.162Z,26.14
2022-07-29T20:44:03.130Z,26.09
2022-07-29T20:47:06.100Z,26.00
2022-07-29T20:50:10.111Z,25.98
2022-07-29T20:53:13.619Z,25.99
2022-07-29T20:56:16.157Z,26.00
2022-07-29T20:59:19.247Z,25.96
2022-07-29T21:02:21.780Z,25.93
2022-07-29T21:05:24.788Z,25.86
2022-07-29T21:08:27.887Z,25.79
2022-07-29T21:11:44.345Z,25.68
2022-07-29T21:14:48.115Z,25.58
2022-07-29T21:17:52.727Z,25.42
2022-07-29T21:20:55.358Z,25.26
2022-07-29T21:23:58.337Z,25.17
2022-07-29T21:27:21.191Z,25.08
2022-07-29T21:30:24.766Z,25.01
2022-07-29T21:33:29.463Z,24.90
2022-07-29T21:36:48.784Z,24.79
2022-07-29T21:39:51.763Z,24.73
2022-07-29T21:42:54.737Z,24.64
2022-07-29T21:46:03.567Z,24.53
2022-07-29T21:49:06.695Z,24.48
2022-07-29T21:52:09.225Z,24.42
2022-07-29T21:55:12.269Z,24.36
2022-07-29T21:58:17.797Z,24.30
2022-07-29T22:01:20.983Z,24.23
2022-07-29T22:04:24.103Z,24.19
2022-07-29T22:07:54.059Z,24.14
2022-07-29T22:10:56.102Z,24.08
2022-07-29T22:13:58.782Z,24.11
2022-07-29T22:17:02.030Z,23.96
2022-07-29T22:20:06.087Z,23.89
2022-07-29T22:23:10.958Z,23.77
2022-07-29T22:26:13.799Z,23.75
2022-07-29T22:29:20.864Z,23.69
2022-07-29T22:32:26.736Z,23.68
2022-07-29T22:35:32.592Z,23.64
2022-07-29T22:38:35.139Z,23.55
2022-07-29T22:41:37.964Z,23.46
2022-07-29T22:44:40.545Z,23.42
2022-07-29T22:47:48.240Z,23.35
2022-07-29T22:50:51.632Z,23.32
2022-07-29T22:53:54.543Z,23.26
2022-07-29T22:56:57.357Z,23.19
2022-07-29T23:00:02.385Z,23.17
2022-07-29T23:03:06.091Z,23.12
2022-07-29T23:06:08.980Z,23.05
2022-07-29T23:09:11.529Z,23.03
2022-07-29T23:12:14.479Z,22.99
2022-07-29T23:15:17.187Z,22.95
2022-07-29T23:18:21.050Z,22.93
2022-07-29T23:21:23.700Z,22.88
2022-07-29T23:39:40.828Z,22.71
2022-07-29T23:42:44.215Z,22.58
2022-07-29T23:45:48.750Z,22.56
2022-07-29T23:48:51.948Z,22.53
2022-07-29T23:51:54.499Z,22.54
2022-07-29T23:55:36.430Z,22.51
2022-07-29T23:58:19.998Z,22.49
